sensor_id;sensor_type;location;lat;lon;timestamp;temperature;humidity
65858;SHT31;53776;47.242;18.674;2022-08-03T00:01:28;17.32;70.01
65858;SHT31;53776;47.242;18.674;2022-08-03T00:03:54;17.32;70.84
65858;SHT31;53776;47.242;18.674;2022-08-03T00:06:19;17.31;69.80
65858;SHT31;53776;47.242;18.674;2022-08-03T00:08:44;17.30;69.99
65858;SHT31;53776;47.242;18.674;2022-08-03T00:11:10;17.32;69.41
65858;SHT31;53776;47.242;18.674;2022-08-03T00:13:35;17.28;70.00
65858;SHT31;53776;47.242;18.674;2022-08-03T00:16:01;17.25;69.59
65858;SHT31;53776;47.242;18.674;2022-08-03T00:18:26;17.02;71.25
65858;SHT31;53776;47.242;18.674;2022-08-03T00:20:52;16.96;70.75
65858;SHT31;53776;47.242;18.674;2022-08-03T00:23:17;17.03;70.79
65858;SHT31;53776;47.242;18.674;2022-08-03T00:25:42;17.06;71.16
65858;SHT31;53776;47.242;18.674;2022-08-03T00:28:08;17.02;71.37
65858;SHT31;53776;47.242;18.674;2022-08-03T00:30:34;17.02;71.08
65858;SHT31;53776;47.242;18.674;2022-08-03T00:32:59;17.04;71.93
65858;SHT31;53776;47.242;18.674;2022-08-03T00:35:25;16.99;73.31
65858;SHT31;53776;47.242;18.674;2022-08-03T00:37:51;16.88;73.28
65858;SHT31;53776;47.242;18.674;2022-08-03T00:40:18;16.83;72.92
65858;SHT31;53776;47.242;18.674;2022-08-03T00:45:28;16.83;73.48
65858;SHT31;53776;47.242;18.674;2022-08-03T00:47:54;16.75;73.73
65858;SHT31;53776;47.242;18.674;2022-08-03T00:50:21;16.70;73.80
65858;SHT31;53776;47.242;18.674;2022-08-03T00:52:48;16.72;73.70
65858;SHT31;53776;47.242;18.674;2022-08-03T00:55:15;16.75;73.06
65858;SHT31;53776;47.242;18.674;2022-08-03T00:57:41;16.73;73.12
65858;SHT31;53776;47.242;18.674;2022-08-03T01:00:08;16.70;73.00
65858;SHT31;53776;47.242;18.674;2022-08-03T01:02:34;16.62;73.46
65858;SHT31;53776;47.242;18.674;2022-08-03T01:05:00;16.53;74.42
65858;SHT31;53776;47.242;18.674;2022-08-03T01:08:05;16.51;74.26
65858;SHT31;53776;47.242;18.674;2022-08-03T01:13:28;16.44;74.78
65858;SHT31;53776;47.242;18.674;2022-08-03T01:16:05;16.30;75.82
65858;SHT31;53776;47.242;18.674;2022-08-03T01:18:44;16.30;74.95
65858;SHT31;53776;47.242;18.674;2022-08-03T01:21:13;16.32;75.00
65858;SHT31;53776;47.242;18.674;2022-08-03T01:24:02;16.33;75.58
65858;SHT31;53776;47.242;18.674;2022-08-03T01:26:43;16.29;75.00
65858;SHT31;53776;47.242;18.674;2022-08-03T01:29:36;16.26;75.03
65858;SHT31;53776;47.242;18.674;2022-08-03T01:32:21;16.15;75.53
65858;SHT31;53776;47.242;18.674;2022-08-03T01:34:58;16.17;75.45
65858;SHT31;53776;47.242;18.674;2022-08-03T01:37:33;16.12;75.81
65858;SHT31;53776;47.242;18.674;2022-08-03T01:40:02;16.08;74.83
65858;SHT31;53776;47.242;18.674;2022-08-03T01:42:29;16.04;76.06
65858;SHT31;53776;47.242;18.674;2022-08-03T01:44:56;16.05;76.23
65858;SHT31;53776;47.242;18.674;2022-08-03T01:47:24;15.97;76.42
65858;SHT31;53776;47.242;18.674;2022-08-03T01:49:50;15.88;76.28
65858;SHT31;53776;47.242;18.674;2022-08-03T01:52:18;15.91;75.72
65858;SHT31;53776;47.242;18.674;2022-08-03T01:54:45;15.91;75.68
65858;SHT31;53776;47.242;18.674;2022-08-03T01:57:13;15.71;76.89
65858;SHT31;53776;47.242;18.674;2022-08-03T01:59:41;15.74;76.78
65858;SHT31;53776;47.242;18.674;2022-08-03T02:02:07;15.69;77.28
65858;SHT31;53776;47.242;18.674;2022-08-03T02:04:37;15.73;76.69
65858;SHT31;53776;47.242;18.674;2022-08-03T02:07:03;15.67;77.17
65858;SHT31;53776;47.242;18.674;2022-08-03T02:09:31;15.71;77.04
65858;SHT31;53776;47.242;18.674;2022-08-03T02:11:59;15.70;77.21
65858;SHT31;53776;47.242;18.674;2022-08-03T02:14:25;15.54;78.01
65858;SHT31;53776;47.242;18.674;2022-08-03T02:16:52;15.60;77.25
65858;SHT31;53776;47.242;18.674;2022-08-03T02:19:19;15.56;76.97
65858;SHT31;53776;47.242;18.674;2022-08-03T02:21:45;15.53;76.15
65858;SHT31;53776;47.242;18.674;2022-08-03T02:24:11;15.50;75.51
65858;SHT31;53776;47.242;18.674;2022-08-03T02:26:38;15.56;75.46
65858;SHT31;53776;47.242;18.674;2022-08-03T02:29:10;15.60;76.11
65858;SHT31;53776;47.242;18.674;2022-08-03T02:31:38;15.53;76.62
65858;SHT31;53776;47.242;18.674;2022-08-03T02:34:12;15.46;76.48
65858;SHT31;53776;47.242;18.674;2022-08-03T02:36:38;15.42;76.48
65858;SHT31;53776;47.242;18.674;2022-08-03T02:39:06;15.39;76.55
65858;SHT31;53776;47.242;18.674;2022-08-03T02:41:44;15.39;76.77
65858;SHT31;53776;47.242;18.674;2022-08-03T02:44:12;15.33;77.05
65858;SHT31;53776;47.242;18.674;2022-08-03T02:46:43;15.32;77.05
65858;SHT31;53776;47.242;18.674;2022-08-03T02:49:11;15.23;77.35
65858;SHT31;53776;47.242;18.674;2022-08-03T02:51:38;15.23;77.48
65858;SHT31;53776;47.242;18.674;2022-08-03T02:54:05;15.11;77.25
65858;SHT31;53776;47.242;18.674;2022-08-03T02:56:33;14.89;78.19
65858;SHT31;53776;47.242;18.674;2022-08-03T02:58:59;15.03;77.91
65858;SHT31;53776;47.242;18.674;2022-08-03T03:01:26;15.09;77.77
65858;SHT31;53776;47.242;18.674;2022-08-03T03:03:54;15.05;77.87
65858;SHT31;53776;47.242;18.674;2022-08-03T03:06:20;15.05;78.05
65858;SHT31;53776;47.242;18.674;2022-08-03T03:08:47;15.05;78.15
65858;SHT31;53776;47.242;18.674;2022-08-03T03:11:14;14.99;78.16
65858;SHT31;53776;47.242;18.674;2022-08-03T03:13:42;15.02;78.29
65858;SHT31;53776;47.242;18.674;2022-08-03T03:16:11;15.03;78.22
65858;SHT31;53776;47.242;18.674;2022-08-03T03:18:37;14.89;79.33
65858;SHT31;53776;47.242;18.674;2022-08-03T03:21:03;15.05;78.75
65858;SHT31;53776;47.242;18.674;2022-08-03T03:23:30;15.05;78.34
65858;SHT31;53776;47.242;18.674;2022-08-03T03:25:56;15.02;78.76
65858;SHT31;53776;47.242;18.674;2022-08-03T03:28:23;15.02;79.08
65858;SHT31;53776;47.242;18.674;2022-08-03T03:30:49;15.09;79.12
65858;SHT31;53776;47.242;18.674;2022-08-03T03:33:15;15.15;79.04
65858;SHT31;53776;47.242;18.674;2022-08-03T03:35:41;15.21;79.18
65858;SHT31;53776;47.242;18.674;2022-08-03T03:38:08;15.16;79.58
65858;SHT31;53776;47.242;18.674;2022-08-03T03:40:37;15.21;80.13
65858;SHT31;53776;47.242;18.674;2022-08-03T03:43:07;15.28;79.74
65858;SHT31;53776;47.242;18.674;2022-08-03T03:45:34;15.30;80.04
65858;SHT31;53776;47.242;18.674;2022-08-03T03:48:04;15.30;80.16
65858;SHT31;53776;47.242;18.674;2022-08-03T03:50:30;15.35;79.93
65858;SHT31;53776;47.242;18.674;2022-08-03T03:52:56;15.47;79.38
65858;SHT31;53776;47.242;18.674;2022-08-03T03:55:22;15.50;79.72
65858;SHT31;53776;47.242;18.674;2022-08-03T03:57:48;15.54;79.51
65858;SHT31;53776;47.242;18.674;2022-08-03T04:00:14;15.66;79.32
65858;SHT31;53776;47.242;18.674;2022-08-03T04:02:40;15.74;79.05
65858;SHT31;53776;47.242;18.674;2022-08-03T04:05:07;15.80;78.93
65858;SHT31;53776;47.242;18.674;2022-08-03T04:07:58;15.81;79.81
65858;SHT31;53776;47.242;18.674;2022-08-03T04:10:47;15.93;79.59
65858;SHT31;53776;47.242;18.674;2022-08-03T04:13:30;15.98;79.77
65858;SHT31;53776;47.242;18.674;2022-08-03T04:15:56;16.08;80.15
65858;SHT31;53776;47.242;18.674;2022-08-03T04:18:24;16.22;79.98
65858;SHT31;53776;47.242;18.674;2022-08-03T04:20:52;16.33;80.13
65858;SHT31;53776;47.242;18.674;2022-08-03T04:23:21;16.49;80.25
65858;SHT31;53776;47.242;18.674;2022-08-03T04:25:50;16.65;80.24
65858;SHT31;53776;47.242;18.674;2022-08-03T04:28:16;16.86;80.14
65858;SHT31;53776;47.242;18.674;2022-08-03T04:30:44;17.11;79.78
65858;SHT31;53776;47.242;18.674;2022-08-03T04:33:13;17.30;79.41
65858;SHT31;53776;47.242;18.674;2022-08-03T04:35:42;17.44;79.20
65858;SHT31;53776;47.242;18.674;2022-08-03T04:38:12;17.62;78.72
65858;SHT31;53776;47.242;18.674;2022-08-03T04:40:40;17.83;78.46
65858;SHT31;53776;47.242;18.674;2022-08-03T04:43:08;18.06;78.10
65858;SHT31;53776;47.242;18.674;2022-08-03T04:45:34;18.23;77.57
65858;SHT31;53776;47.242;18.674;2022-08-03T04:48:01;18.34;77.29
65858;SHT31;53776;47.242;18.674;2022-08-03T04:50:27;18.51;76.95
65858;SHT31;53776;47.242;18.674;2022-08-03T04:52:54;18.67;76.73
65858;SHT31;53776;47.242;18.674;2022-08-03T04:55:29;18.82;76.64
65858;SHT31;53776;47.242;18.674;2022-08-03T04:57:56;18.95;76.28
65858;SHT31;53776;47.242;18.674;2022-08-03T05:00:21;19.06;76.48
65858;SHT31;53776;47.242;18.674;2022-08-03T05:02:47;19.23;75.87
65858;SHT31;53776;47.242;18.674;2022-08-03T05:05:12;19.40;75.81
65858;SHT31;53776;47.242;18.674;2022-08-03T05:07:40;19.61;75.37
65858;SHT31;53776;47.242;18.674;2022-08-03T05:10:07;19.81;75.11
65858;SHT31;53776;47.242;18.674;2022-08-03T05:12:33;19.99;74.79
65858;SHT31;53776;47.242;18.674;2022-08-03T05:15:00;20.12;74.22
65858;SHT31;53776;47.242;18.674;2022-08-03T05:17:25;20.30;73.82
65858;SHT31;53776;47.242;18.674;2022-08-03T05:19:51;20.50;73.42
65858;SHT31;53776;47.242;18.674;2022-08-03T05:22:16;20.63;73.70
65858;SHT31;53776;47.242;18.674;2022-08-03T05:24:41;20.79;72.91
65858;SHT31;53776;47.242;18.674;2022-08-03T05:27:07;20.97;72.70
65858;SHT31;53776;47.242;18.674;2022-08-03T05:29:33;21.17;72.07
65858;SHT31;53776;47.242;18.674;2022-08-03T05:31:59;21.34;71.93
65858;SHT31;53776;47.242;18.674;2022-08-03T05:34:26;21.51;71.23
65858;SHT31;53776;47.242;18.674;2022-08-03T05:36:51;21.70;71.36
65858;SHT31;53776;47.242;18.674;2022-08-03T05:39:16;21.83;70.07
65858;SHT31;53776;47.242;18.674;2022-08-03T05:41:42;21.90;69.98
65858;SHT31;53776;47.242;18.674;2022-08-03T05:44:07;22.00;70.16
65858;SHT31;53776;47.242;18.674;2022-08-03T05:46:33;22.13;69.83
65858;SHT31;53776;47.242;18.674;2022-08-03T05:48:58;22.27;68.94
65858;SHT31;53776;47.242;18.674;2022-08-03T05:51:23;22.34;68.83
65858;SHT31;53776;47.242;18.674;2022-08-03T05:53:49;22.47;69.09
65858;SHT31;53776;47.242;18.674;2022-08-03T05:56:14;22.54;68.73
65858;SHT31;53776;47.242;18.674;2022-08-03T05:58:41;22.59;67.38
65858;SHT31;53776;47.242;18.674;2022-08-03T06:01:07;22.71;67.90
65858;SHT31;53776;47.242;18.674;2022-08-03T06:03:32;22.84;67.99
65858;SHT31;53776;47.242;18.674;2022-08-03T06:05:57;22.98;67.90
65858;SHT31;53776;47.242;18.674;2022-08-03T06:08:23;23.10;66.78
65858;SHT31;53776;47.242;18.674;2022-08-03T06:10:49;23.23;66.74
65858;SHT31;53776;47.242;18.674;2022-08-03T06:13:14;23.31;66.35
65858;SHT31;53776;47.242;18.674;2022-08-03T06:15:40;23.44;65.87
65858;SHT31;53776;47.242;18.674;2022-08-03T06:18:06;23.53;66.04
65858;SHT31;53776;47.242;18.674;2022-08-03T06:20:32;23.57;65.60
65858;SHT31;53776;47.242;18.674;2022-08-03T06:22:57;23.70;65.16
65858;SHT31;53776;47.242;18.674;2022-08-03T06:25:24;23.84;64.77
65858;SHT31;53776;47.242;18.674;2022-08-03T06:27:50;24.05;64.64
65858;SHT31;53776;47.242;18.674;2022-08-03T06:30:15;24.11;64.61
65858;SHT31;53776;47.242;18.674;2022-08-03T06:32:41;24.19;63.71
65858;SHT31;53776;47.242;18.674;2022-08-03T06:35:08;24.35;64.25
65858;SHT31;53776;47.242;18.674;2022-08-03T06:37:44;24.74;63.33
65858;SHT31;53776;47.242;18.674;2022-08-03T06:40:15;26.10;58.85
65858;SHT31;53776;47.242;18.674;2022-08-03T06:42:41;27.84;53.01
65858;SHT31;53776;47.242;18.674;2022-08-03T06:45:07;29.21;49.70
65858;SHT31;53776;47.242;18.674;2022-08-03T06:47:35;30.39;47.38
65858;SHT31;53776;47.242;18.674;2022-08-03T06:50:01;31.35;44.94
65858;SHT31;53776;47.242;18.674;2022-08-03T06:52:27;31.84;43.85
65858;SHT31;53776;47.242;18.674;2022-08-03T06:54:53;32.67;41.35
65858;SHT31;53776;47.242;18.674;2022-08-03T06:57:18;32.97;40.68
65858;SHT31;53776;47.242;18.674;2022-08-03T06:59:44;33.31;40.08
65858;SHT31;53776;47.242;18.674;2022-08-03T07:02:09;33.56;40.85
65858;SHT31;53776;47.242;18.674;2022-08-03T07:04:36;33.76;38.59
65858;SHT31;53776;47.242;18.674;2022-08-03T07:07:01;33.86;39.47
65858;SHT31;53776;47.242;18.674;2022-08-03T07:09:26;33.92;38.91
65858;SHT31;53776;47.242;18.674;2022-08-03T07:11:52;34.19;38.04
65858;SHT31;53776;47.242;18.674;2022-08-03T07:14:18;34.16;38.51
65858;SHT31;53776;47.242;18.674;2022-08-03T07:16:43;34.54;36.78
65858;SHT31;53776;47.242;18.674;2022-08-03T07:19:09;35.10;36.93
65858;SHT31;53776;47.242;18.674;2022-08-03T07:21:34;35.16;37.99
65858;SHT31;53776;47.242;18.674;2022-08-03T07:23:59;35.32;36.47
65858;SHT31;53776;47.242;18.674;2022-08-03T07:26:25;35.03;36.67
65858;SHT31;53776;47.242;18.674;2022-08-03T07:28:50;35.29;35.81
65858;SHT31;53776;47.242;18.674;2022-08-03T07:31:16;35.37;36.30
65858;SHT31;53776;47.242;18.674;2022-08-03T07:33:41;35.49;35.43
65858;SHT31;53776;47.242;18.674;2022-08-03T07:36:06;35.23;37.28
65858;SHT31;53776;47.242;18.674;2022-08-03T07:38:34;35.70;37.48
65858;SHT31;53776;47.242;18.674;2022-08-03T07:41:00;34.91;37.72
65858;SHT31;53776;47.242;18.674;2022-08-03T07:43:25;35.19;36.46
65858;SHT31;53776;47.242;18.674;2022-08-03T07:45:50;34.88;37.42
65858;SHT31;53776;47.242;18.674;2022-08-03T07:48:16;35.98;34.94
65858;SHT31;53776;47.242;18.674;2022-08-03T07:50:41;35.94;36.63
65858;SHT31;53776;47.242;18.674;2022-08-03T07:53:07;36.08;35.61
65858;SHT31;53776;47.242;18.674;2022-08-03T07:55:33;36.32;34.53
65858;SHT31;53776;47.242;18.674;2022-08-03T07:58:11;36.60;36.86
65858;SHT31;53776;47.242;18.674;2022-08-03T08:00:40;36.04;34.70
65858;SHT31;53776;47.242;18.674;2022-08-03T08:03:05;35.90;35.00
65858;SHT31;53776;47.242;18.674;2022-08-03T08:05:31;36.48;34.09
65858;SHT31;53776;47.242;18.674;2022-08-03T08:07:56;37.21;33.29
65858;SHT31;53776;47.242;18.674;2022-08-03T08:10:22;36.75;34.38
65858;SHT31;53776;47.242;18.674;2022-08-03T08:12:48;37.11;33.77
65858;SHT31;53776;47.242;18.674;2022-08-03T08:15:13;37.23;33.57
65858;SHT31;53776;47.242;18.674;2022-08-03T08:17:45;37.39;32.88
65858;SHT31;53776;47.242;18.674;2022-08-03T08:20:15;36.87;35.29
65858;SHT31;53776;47.242;18.674;2022-08-03T08:22:40;37.01;33.97
65858;SHT31;53776;47.242;18.674;2022-08-03T08:25:06;37.54;32.71
65858;SHT31;53776;47.242;18.674;2022-08-03T08:27:32;37.27;32.67
65858;SHT31;53776;47.242;18.674;2022-08-03T08:29:57;37.00;34.48
65858;SHT31;53776;47.242;18.674;2022-08-03T08:32:23;36.42;35.10
65858;SHT31;53776;47.242;18.674;2022-08-03T08:34:48;37.11;31.66
65858;SHT31;53776;47.242;18.674;2022-08-03T08:37:13;36.76;33.51
65858;SHT31;53776;47.242;18.674;2022-08-03T08:39:39;36.08;33.40
65858;SHT31;53776;47.242;18.674;2022-08-03T08:42:04;36.20;33.38
65858;SHT31;53776;47.242;18.674;2022-08-03T08:44:30;34.95;37.62
65858;SHT31;53776;47.242;18.674;2022-08-03T08:46:56;35.80;37.48
65858;SHT31;53776;47.242;18.674;2022-08-03T08:49:24;35.45;37.26
65858;SHT31;53776;47.242;18.674;2022-08-03T08:51:53;36.02;34.71
65858;SHT31;53776;47.242;18.674;2022-08-03T08:54:20;36.08;34.43
65858;SHT31;53776;47.242;18.674;2022-08-03T08:57:01;35.16;35.07
65858;SHT31;53776;47.242;18.674;2022-08-03T08:59:27;35.30;37.45
65858;SHT31;53776;47.242;18.674;2022-08-03T09:01:55;35.15;38.04
65858;SHT31;53776;47.242;18.674;2022-08-03T09:04:21;35.56;34.62
65858;SHT31;53776;47.242;18.674;2022-08-03T09:06:46;35.43;34.45
65858;SHT31;53776;47.242;18.674;2022-08-03T09:09:12;35.08;37.56
65858;SHT31;53776;47.242;18.674;2022-08-03T09:11:41;35.12;36.48
65858;SHT31;53776;47.242;18.674;2022-08-03T09:14:08;34.54;36.04
65858;SHT31;53776;47.242;18.674;2022-08-03T09:16:33;34.23;39.53
65858;SHT31;53776;47.242;18.674;2022-08-03T09:19:10;33.44;39.83
65858;SHT31;53776;47.242;18.674;2022-08-03T09:21:37;33.21;38.60
65858;SHT31;53776;47.242;18.674;2022-08-03T09:24:04;32.49;42.50
65858;SHT31;53776;47.242;18.674;2022-08-03T09:26:30;32.46;40.62
65858;SHT31;53776;47.242;18.674;2022-08-03T09:31:39;32.49;40.57
65858;SHT31;53776;47.242;18.674;2022-08-03T09:34:07;32.50;39.77
65858;SHT31;53776;47.242;18.674;2022-08-03T09:36:54;32.33;39.58
65858;SHT31;53776;47.242;18.674;2022-08-03T09:39:26;32.36;40.66
65858;SHT31;53776;47.242;18.674;2022-08-03T09:42:07;32.06;41.38
65858;SHT31;53776;47.242;18.674;2022-08-03T09:44:37;31.93;41.16
65858;SHT31;53776;47.242;18.674;2022-08-03T09:47:03;31.58;40.90
65858;SHT31;53776;47.242;18.674;2022-08-03T09:49:30;31.78;42.36
65858;SHT31;53776;47.242;18.674;2022-08-03T09:51:55;32.08;41.27
65858;SHT31;53776;47.242;18.674;2022-08-03T09:54:31;32.33;40.66
65858;SHT31;53776;47.242;18.674;2022-08-03T09:56:57;32.30;39.83
65858;SHT31;53776;47.242;18.674;2022-08-03T09:59:25;32.32;39.39
65858;SHT31;53776;47.242;18.674;2022-08-03T10:01:51;31.98;39.42
65858;SHT31;53776;47.242;18.674;2022-08-03T10:04:17;32.11;40.66
65858;SHT31;53776;47.242;18.674;2022-08-03T10:07:02;32.29;39.57
65858;SHT31;53776;47.242;18.674;2022-08-03T10:09:28;32.35;41.94
65858;SHT31;53776;47.242;18.674;2022-08-03T10:11:53;32.32;45.73
65858;SHT31;53776;47.242;18.674;2022-08-03T10:14:19;32.41;41.53
65858;SHT31;53776;47.242;18.674;2022-08-03T10:16:46;32.57;39.00
65858;SHT31;53776;47.242;18.674;2022-08-03T10:19:12;32.30;39.54
65858;SHT31;53776;47.242;18.674;2022-08-03T10:21:40;32.52;39.40
65858;SHT31;53776;47.242;18.674;2022-08-03T10:24:08;32.77;38.87
65858;SHT31;53776;47.242;18.674;2022-08-03T10:26:37;32.90;37.62
65858;SHT31;53776;47.242;18.674;2022-08-03T10:29:08;33.36;38.03
65858;SHT31;53776;47.242;18.674;2022-08-03T10:31:39;33.65;38.51
65858;SHT31;53776;47.242;18.674;2022-08-03T10:34:15;33.82;36.40
65858;SHT31;53776;47.242;18.674;2022-08-03T10:36:42;33.97;36.74
65858;SHT31;53776;47.242;18.674;2022-08-03T10:39:09;33.85;34.49
65858;SHT31;53776;47.242;18.674;2022-08-03T10:41:38;33.54;37.47
65858;SHT31;53776;47.242;18.674;2022-08-03T10:44:10;33.35;35.51
65858;SHT31;53776;47.242;18.674;2022-08-03T10:46:38;33.22;36.95
65858;SHT31;53776;47.242;18.674;2022-08-03T10:49:05;32.70;37.60
65858;SHT31;53776;47.242;18.674;2022-08-03T10:51:31;32.46;36.49
65858;SHT31;53776;47.242;18.674;2022-08-03T10:54:00;32.40;37.32
65858;SHT31;53776;47.242;18.674;2022-08-03T11:02:10;31.55;39.29
65858;SHT31;53776;47.242;18.674;2022-08-03T11:04:38;32.02;40.40
65858;SHT31;53776;47.242;18.674;2022-08-03T11:09:42;32.98;36.85
65858;SHT31;53776;47.242;18.674;2022-08-03T11:12:25;32.90;37.11
65858;SHT31;53776;47.242;18.674;2022-08-03T11:14:52;33.07;34.87
65858;SHT31;53776;47.242;18.674;2022-08-03T11:17:18;33.11;34.45
65858;SHT31;53776;47.242;18.674;2022-08-03T11:19:49;33.24;34.73
65858;SHT31;53776;47.242;18.674;2022-08-03T11:22:15;32.86;36.48
65858;SHT31;53776;47.242;18.674;2022-08-03T11:27:26;31.71;38.03
65858;SHT31;53776;47.242;18.674;2022-08-03T11:30:22;31.44;39.65
65858;SHT31;53776;47.242;18.674;2022-08-03T11:32:53;31.84;39.59
65858;SHT31;53776;47.242;18.674;2022-08-03T11:35:30;32.28;37.82
65858;SHT31;53776;47.242;18.674;2022-08-03T11:40:52;33.17;37.70
65858;SHT31;53776;47.242;18.674;2022-08-03T11:46:08;33.80;35.89
65858;SHT31;53776;47.242;18.674;2022-08-03T11:48:46;33.99;32.62
65858;SHT31;53776;47.242;18.674;2022-08-03T11:51:23;33.70;35.66
65858;SHT31;53776;47.242;18.674;2022-08-03T11:53:53;33.69;33.33
65858;SHT31;53776;47.242;18.674;2022-08-03T11:56:18;33.46;35.71
65858;SHT31;53776;47.242;18.674;2022-08-03T11:58:52;33.56;34.12
65858;SHT31;53776;47.242;18.674;2022-08-03T12:01:20;33.44;35.22
65858;SHT31;53776;47.242;18.674;2022-08-03T12:03:46;33.90;34.69
65858;SHT31;53776;47.242;18.674;2022-08-03T12:06:13;33.83;34.10
65858;SHT31;53776;47.242;18.674;2022-08-03T12:08:40;33.85;35.22
65858;SHT31;53776;47.242;18.674;2022-08-03T12:11:07;33.73;35.69
65858;SHT31;53776;47.242;18.674;2022-08-03T12:13:43;34.17;33.69
65858;SHT31;53776;47.242;18.674;2022-08-03T12:16:10;34.62;33.97
65858;SHT31;53776;47.242;18.674;2022-08-03T12:18:41;34.85;32.26
65858;SHT31;53776;47.242;18.674;2022-08-03T12:21:08;34.58;33.11
65858;SHT31;53776;47.242;18.674;2022-08-03T12:23:35;34.20;33.28
65858;SHT31;53776;47.242;18.674;2022-08-03T12:26:03;33.75;34.09
65858;SHT31;53776;47.242;18.674;2022-08-03T12:28:29;34.11;32.74
65858;SHT31;53776;47.242;18.674;2022-08-03T12:30:54;33.94;34.21
65858;SHT31;53776;47.242;18.674;2022-08-03T12:33:25;34.13;31.92
65858;SHT31;53776;47.242;18.674;2022-08-03T12:36:20;34.21;32.16
65858;SHT31;53776;47.242;18.674;2022-08-03T12:38:56;34.30;33.08
65858;SHT31;53776;47.242;18.674;2022-08-03T12:41:34;34.10;31.72
65858;SHT31;53776;47.242;18.674;2022-08-03T12:44:00;34.11;34.04
65858;SHT31;53776;47.242;18.674;2022-08-03T12:46:36;33.93;31.80
65858;SHT31;53776;47.242;18.674;2022-08-03T12:49:12;33.66;33.99
65858;SHT31;53776;47.242;18.674;2022-08-03T12:54:25;34.51;30.96
65858;SHT31;53776;47.242;18.674;2022-08-03T12:57:08;34.69;31.62
65858;SHT31;53776;47.242;18.674;2022-08-03T12:59:37;34.57;30.39
65858;SHT31;53776;47.242;18.674;2022-08-03T13:02:14;34.16;31.24
65858;SHT31;53776;47.242;18.674;2022-08-03T13:04:40;34.28;31.92
65858;SHT31;53776;47.242;18.674;2022-08-03T13:07:07;34.33;31.18
65858;SHT31;53776;47.242;18.674;2022-08-03T13:09:50;34.17;31.12
65858;SHT31;53776;47.242;18.674;2022-08-03T13:12:21;33.76;32.20
65858;SHT31;53776;47.242;18.674;2022-08-03T13:14:49;33.90;33.93
65858;SHT31;53776;47.242;18.674;2022-08-03T13:17:15;33.82;31.39
65858;SHT31;53776;47.242;18.674;2022-08-03T13:19:41;33.97;30.06
65858;SHT31;53776;47.242;18.674;2022-08-03T13:24:36;33.88;33.75
65858;SHT31;53776;47.242;18.674;2022-08-03T13:27:02;33.93;30.08
65858;SHT31;53776;47.242;18.674;2022-08-03T13:29:29;33.96;31.70
65858;SHT31;53776;47.242;18.674;2022-08-03T13:31:54;33.85;28.85
65858;SHT31;53776;47.242;18.674;2022-08-03T13:34:20;33.72;34.39
65858;SHT31;53776;47.242;18.674;2022-08-03T13:36:45;33.77;34.58
65858;SHT31;53776;47.242;18.674;2022-08-03T13:39:10;33.70;30.89
65858;SHT31;53776;47.242;18.674;2022-08-03T13:41:36;33.77;31.65
65858;SHT31;53776;47.242;18.674;2022-08-03T13:44:01;33.80;30.89
65858;SHT31;53776;47.242;18.674;2022-08-03T13:46:27;33.86;31.71
65858;SHT31;53776;47.242;18.674;2022-08-03T13:48:52;33.83;31.77
65858;SHT31;53776;47.242;18.674;2022-08-03T13:51:18;33.65;32.73
65858;SHT31;53776;47.242;18.674;2022-08-03T13:53:43;33.44;30.97
65858;SHT31;53776;47.242;18.674;2022-08-03T13:56:08;33.56;31.44
65858;SHT31;53776;47.242;18.674;2022-08-03T13:58:34;33.48;32.13
65858;SHT31;53776;47.242;18.674;2022-08-03T14:00:59;33.55;31.91
65858;SHT31;53776;47.242;18.674;2022-08-03T14:03:25;33.83;32.25
65858;SHT31;53776;47.242;18.674;2022-08-03T14:05:50;33.92;30.10
65858;SHT31;53776;47.242;18.674;2022-08-03T14:08:15;33.82;32.37
65858;SHT31;53776;47.242;18.674;2022-08-03T14:10:42;33.68;32.57
65858;SHT31;53776;47.242;18.674;2022-08-03T14:13:09;33.92;30.78
65858;SHT31;53776;47.242;18.674;2022-08-03T14:15:35;33.88;32.05
65858;SHT31;53776;47.242;18.674;2022-08-03T14:18:01;33.97;30.68
65858;SHT31;53776;47.242;18.674;2022-08-03T14:20:26;33.92;31.92
65858;SHT31;53776;47.242;18.674;2022-08-03T14:22:51;33.80;30.38
65858;SHT31;53776;47.242;18.674;2022-08-03T14:25:18;33.94;31.21
65858;SHT31;53776;47.242;18.674;2022-08-03T14:27:43;33.85;32.39
65858;SHT31;53776;47.242;18.674;2022-08-03T14:30:10;33.42;32.56
65858;SHT31;53776;47.242;18.674;2022-08-03T14:32:35;33.63;32.07
65858;SHT31;53776;47.242;18.674;2022-08-03T14:35:01;33.63;33.73
65858;SHT31;53776;47.242;18.674;2022-08-03T14:37:26;33.77;32.08
65858;SHT31;53776;47.242;18.674;2022-08-03T14:39:51;33.90;31.78
65858;SHT31;53776;47.242;18.674;2022-08-03T14:42:17;33.94;32.48
65858;SHT31;53776;47.242;18.674;2022-08-03T14:44:44;33.79;31.51
65858;SHT31;53776;47.242;18.674;2022-08-03T14:47:09;33.75;29.36
65858;SHT31;53776;47.242;18.674;2022-08-03T14:49:35;33.83;32.32
65858;SHT31;53776;47.242;18.674;2022-08-03T14:52:00;33.85;30.52
65858;SHT31;53776;47.242;18.674;2022-08-03T14:54:26;33.77;31.33
65858;SHT31;53776;47.242;18.674;2022-08-03T14:56:54;33.66;32.20
65858;SHT31;53776;47.242;18.674;2022-08-03T14:59:20;33.83;30.21
65858;SHT31;53776;47.242;18.674;2022-08-03T15:01:45;33.83;31.81
65858;SHT31;53776;47.242;18.674;2022-08-03T15:04:11;33.93;29.98
65858;SHT31;53776;47.242;18.674;2022-08-03T15:06:36;34.00;31.24
65858;SHT31;53776;47.242;18.674;2022-08-03T15:09:01;33.97;29.22
65858;SHT31;53776;47.242;18.674;2022-08-03T15:11:27;33.94;29.57
65858;SHT31;53776;47.242;18.674;2022-08-03T15:13:52;34.10;31.51
65858;SHT31;53776;47.242;18.674;2022-08-03T15:16:17;34.19;31.05
65858;SHT31;53776;47.242;18.674;2022-08-03T15:18:43;34.09;29.35
65858;SHT31;53776;47.242;18.674;2022-08-03T15:21:08;34.07;30.26
65858;SHT31;53776;47.242;18.674;2022-08-03T15:23:34;33.62;29.50
65858;SHT31;53776;47.242;18.674;2022-08-03T15:25:59;33.34;31.80
65858;SHT31;53776;47.242;18.674;2022-08-03T15:28:24;33.21;30.95
65858;SHT31;53776;47.242;18.674;2022-08-03T15:30:53;33.28;32.22
65858;SHT31;53776;47.242;18.674;2022-08-03T15:33:19;33.15;30.98
65858;SHT31;53776;47.242;18.674;2022-08-03T15:35:44;33.22;32.24
65858;SHT31;53776;47.242;18.674;2022-08-03T15:38:11;33.28;31.08
65858;SHT31;53776;47.242;18.674;2022-08-03T15:40:36;33.11;31.17
65858;SHT31;53776;47.242;18.674;2022-08-03T15:43:02;32.91;31.29
65858;SHT31;53776;47.242;18.674;2022-08-03T15:45:27;32.96;33.11
65858;SHT31;53776;47.242;18.674;2022-08-03T15:47:53;33.05;33.27
65858;SHT31;53776;47.242;18.674;2022-08-03T15:50:18;33.08;32.56